DLH8NE EDDV-EDDF
Flight info
| Callsign | DLH8NE |
|---|---|
| Flight time | 0h 46m |
| Altitude | 18000 |
| Route | NORTA1Y NORTA P12 TOLTA T154 ROBAR T152 KERAX KERAX5D |
| Aircraft | A319/M-SDE2E3FGIJ1LORWXYZ/HB1 |
Departure
| Time | 2026-05-01 12:33 |
|---|---|
| Airport | Hannover Airport (EDDV) |
Arrival
| Time | 2026-05-01 13:19 |
|---|---|
| Airport | Frankfurt Main Airport (EDDF) |
| Time | Latitude | Longitude | Altitude | Speed | Heading |
|---|---|---|---|---|---|
| 2026-05-01 11:18 | 52.45879 | 9.69268 | 179 ft | 0 kts | 94° |
| 2026-05-01 12:23 | 52.45879 | 9.69263 | 179 ft | 3 kts | 94° |
| 2026-05-01 12:24 | 52.45882 | 9.69220 | 179 ft | 4 kts | 100° |
| 2026-05-01 12:24 | 52.45889 | 9.69178 | 179 ft | 4 kts | 121° |
| 2026-05-01 12:24 | 52.45903 | 9.69154 | 179 ft | 4 kts | 192° |
| 2026-05-01 12:24 | 52.45911 | 9.69159 | 179 ft | 1 kts | 207° |
| 2026-05-01 12:28 | 52.45908 | 9.69156 | 179 ft | 2 kts | 207° |
| 2026-05-01 12:28 | 52.45886 | 9.69137 | 179 ft | 4 kts | 207° |
| 2026-05-01 12:28 | 52.45834 | 9.69073 | 179 ft | 7 kts | 231° |
| 2026-05-01 12:29 | 52.45803 | 9.69007 | 179 ft | 8 kts | 233° |
| 2026-05-01 12:29 | 52.45778 | 9.68888 | 179 ft | 9 kts | 274° |
| 2026-05-01 12:29 | 52.45785 | 9.68651 | 179 ft | 12 kts | 272° |
| 2026-05-01 12:30 | 52.45792 | 9.68413 | 179 ft | 13 kts | 273° |
| 2026-05-01 12:30 | 52.45736 | 9.68307 | 179 ft | 14 kts | 206° |
| 2026-05-01 12:30 | 52.45653 | 9.68221 | 179 ft | 14 kts | 240° |
| 2026-05-01 12:31 | 52.45652 | 9.68053 | 179 ft | 15 kts | 273° |
| 2026-05-01 12:31 | 52.45657 | 9.67872 | 179 ft | 16 kts | 272° |
| 2026-05-01 12:31 | 52.45609 | 9.67715 | 179 ft | 17 kts | 205° |
| 2026-05-01 12:31 | 52.45521 | 9.67696 | 183 ft | 6 kts | 182° |
| 2026-05-01 12:32 | 52.45497 | 9.67741 | 183 ft | 7 kts | 97° |
| 2026-05-01 12:32 | 52.45489 | 9.68026 | 183 ft | 64 kts | 92° |
| 2026-05-01 12:32 | 52.45456 | 9.69201 | 191 ft | 138 kts | 92° |
| 2026-05-01 12:33 | 52.45413 | 9.70921 | 662 ft | 151 kts | 93° |
| 2026-05-01 12:33 | 52.45372 | 9.72649 | 1422 ft | 153 kts | 94° |
| 2026-05-01 12:33 | 52.45319 | 9.74477 | 2044 ft | 171 kts | 94° |
| 2026-05-01 12:33 | 52.45256 | 9.76534 | 2520 ft | 192 kts | 94° |
| 2026-05-01 12:34 | 52.45183 | 9.78840 | 3143 ft | 209 kts | 94° |
| 2026-05-01 12:34 | 52.45111 | 9.81238 | 4145 ft | 212 kts | 94° |
| 2026-05-01 12:34 | 52.45041 | 9.83669 | 5139 ft | 215 kts | 94° |
| 2026-05-01 12:34 | 52.44971 | 9.86138 | 6081 ft | 218 kts | 94° |
| 2026-05-01 12:35 | 52.44724 | 9.88593 | 7020 ft | 221 kts | 114° |
| 2026-05-01 12:35 | 52.43804 | 9.90595 | 7914 ft | 224 kts | 142° |
| 2026-05-01 12:35 | 52.42389 | 9.91687 | 8824 ft | 228 kts | 160° |
| 2026-05-01 12:35 | 52.40840 | 9.92345 | 9702 ft | 234 kts | 172° |
| 2026-05-01 12:36 | 52.39185 | 9.92221 | 10290 ft | 254 kts | 187° |
| 2026-05-01 12:36 | 52.37366 | 9.91724 | 10748 ft | 276 kts | 187° |
| 2026-05-01 12:36 | 52.35389 | 9.91185 | 11161 ft | 300 kts | 186° |
| 2026-05-01 12:36 | 52.33257 | 9.90609 | 11635 ft | 318 kts | 186° |
| 2026-05-01 12:37 | 52.31038 | 9.90014 | 12396 ft | 326 kts | 186° |
| 2026-05-01 12:37 | 52.28782 | 9.89410 | 13242 ft | 331 kts | 186° |
| 2026-05-01 12:37 | 52.26489 | 9.88801 | 14032 ft | 337 kts | 186° |
| 2026-05-01 12:37 | 52.24159 | 9.88198 | 14809 ft | 342 kts | 185° |
| 2026-05-01 12:38 | 52.21788 | 9.87675 | 15573 ft | 346 kts | 184° |
| 2026-05-01 12:38 | 52.19382 | 9.87205 | 16312 ft | 350 kts | 183° |
| 2026-05-01 12:38 | 52.16943 | 9.86760 | 17032 ft | 355 kts | 183° |
| 2026-05-01 12:38 | 52.14471 | 9.86316 | 17738 ft | 360 kts | 183° |
| 2026-05-01 12:39 | 52.11968 | 9.85858 | 18442 ft | 364 kts | 184° |
| 2026-05-01 12:39 | 52.09436 | 9.85381 | 19140 ft | 368 kts | 184° |
| 2026-05-01 12:39 | 52.06882 | 9.84885 | 19809 ft | 372 kts | 184° |
| 2026-05-01 12:39 | 52.04300 | 9.84380 | 20480 ft | 375 kts | 184° |
| 2026-05-01 12:40 | 52.01695 | 9.83875 | 21152 ft | 378 kts | 185° |
| 2026-05-01 12:40 | 51.99070 | 9.83368 | 21820 ft | 382 kts | 185° |
| 2026-05-01 12:40 | 51.96416 | 9.82854 | 22259 ft | 386 kts | 185° |
| 2026-05-01 12:40 | 51.93755 | 9.82333 | 22370 ft | 382 kts | 185° |
| 2026-05-01 12:41 | 51.91175 | 9.81826 | 22393 ft | 365 kts | 185° |
| 2026-05-01 12:41 | 51.88726 | 9.81014 | 22393 ft | 357 kts | 196° |
| 2026-05-01 12:41 | 51.86460 | 9.79395 | 22392 ft | 357 kts | 208° |
| 2026-05-01 12:41 | 51.84461 | 9.77018 | 22395 ft | 358 kts | 221° |
| 2026-05-01 12:42 | 51.82733 | 9.74189 | 22406 ft | 358 kts | 224° |
| 2026-05-01 12:42 | 51.80990 | 9.71305 | 22423 ft | 359 kts | 224° |
| 2026-05-01 12:42 | 51.79240 | 9.68432 | 22384 ft | 359 kts | 224° |
| 2026-05-01 12:42 | 51.77487 | 9.65571 | 22383 ft | 359 kts | 224° |
| 2026-05-01 12:43 | 51.75728 | 9.62711 | 22385 ft | 359 kts | 224° |
| 2026-05-01 12:43 | 51.73971 | 9.59851 | 22386 ft | 359 kts | 224° |
| 2026-05-01 12:43 | 51.72216 | 9.56988 | 22386 ft | 359 kts | 224° |
| 2026-05-01 12:43 | 51.70464 | 9.54128 | 22394 ft | 359 kts | 224° |
| 2026-05-01 12:44 | 51.68642 | 9.51385 | 22409 ft | 357 kts | 217° |
| 2026-05-01 12:44 | 51.66574 | 9.49192 | 22441 ft | 356 kts | 209° |
| 2026-05-01 12:44 | 51.62309 | 9.45149 | 22395 ft | 355 kts | 208° |
| 2026-05-01 12:45 | 51.58058 | 9.41122 | 22434 ft | 354 kts | 209° |
| 2026-05-01 12:45 | 51.55929 | 9.39109 | 22412 ft | 355 kts | 208° |
| 2026-05-01 12:45 | 51.53801 | 9.37102 | 22410 ft | 355 kts | 208° |
| 2026-05-01 12:46 | 51.51671 | 9.35098 | 22396 ft | 355 kts | 208° |
| 2026-05-01 12:46 | 51.49539 | 9.33093 | 22402 ft | 355 kts | 208° |
| 2026-05-01 12:46 | 51.47411 | 9.31086 | 22398 ft | 355 kts | 209° |
| 2026-05-01 12:46 | 51.45275 | 9.29095 | 22390 ft | 355 kts | 206° |
| 2026-05-01 12:47 | 51.43002 | 9.27607 | 22387 ft | 352 kts | 194° |
| 2026-05-01 12:47 | 51.40604 | 9.26906 | 22390 ft | 350 kts | 182° |
| 2026-05-01 12:47 | 51.38182 | 9.26914 | 22387 ft | 348 kts | 176° |
| 2026-05-01 12:47 | 51.35758 | 9.27040 | 22384 ft | 348 kts | 176° |
| 2026-05-01 12:48 | 51.33337 | 9.27156 | 22383 ft | 348 kts | 176° |
| 2026-05-01 12:48 | 51.30918 | 9.27266 | 22382 ft | 348 kts | 176° |
| 2026-05-01 12:48 | 51.28528 | 9.27372 | 22380 ft | 348 kts | 176° |
| 2026-05-01 12:48 | 51.26106 | 9.27485 | 22381 ft | 349 kts | 176° |
| 2026-05-01 12:49 | 51.23681 | 9.27595 | 22378 ft | 348 kts | 176° |
| 2026-05-01 12:49 | 51.21256 | 9.27704 | 22378 ft | 348 kts | 176° |
| 2026-05-01 12:49 | 51.18830 | 9.27816 | 22377 ft | 349 kts | 176° |
| 2026-05-01 12:49 | 51.16402 | 9.27931 | 22373 ft | 349 kts | 176° |
| 2026-05-01 12:50 | 51.13975 | 9.28045 | 22371 ft | 349 kts | 176° |
| 2026-05-01 12:50 | 51.11548 | 9.28156 | 22368 ft | 349 kts | 176° |
| 2026-05-01 12:50 | 51.09122 | 9.28216 | 22364 ft | 349 kts | 178° |
| 2026-05-01 12:50 | 51.06693 | 9.28180 | 22363 ft | 349 kts | 179° |
| 2026-05-01 12:51 | 51.04257 | 9.28094 | 22193 ft | 349 kts | 179° |
| 2026-05-01 12:51 | 51.01850 | 9.27991 | 21854 ft | 344 kts | 179° |
| 2026-05-01 12:51 | 50.97080 | 9.27820 | 20984 ft | 341 kts | 179° |
| 2026-05-01 12:52 | 50.94715 | 9.27905 | 20568 ft | 338 kts | 171° |
| 2026-05-01 12:52 | 50.90354 | 9.30248 | 19732 ft | 330 kts | 148° |
| 2026-05-01 12:52 | 50.88354 | 9.32015 | 19321 ft | 329 kts | 148° |
| 2026-05-01 12:53 | 50.84374 | 9.35484 | 18542 ft | 325 kts | 149° |
| 2026-05-01 12:53 | 50.82390 | 9.37201 | 18118 ft | 325 kts | 149° |
| 2026-05-01 12:53 | 50.80414 | 9.38913 | 17718 ft | 324 kts | 148° |
| 2026-05-01 12:54 | 50.78443 | 9.40621 | 17320 ft | 322 kts | 149° |
| 2026-05-01 12:54 | 50.74527 | 9.44012 | 16551 ft | 320 kts | 148° |
| 2026-05-01 12:54 | 50.72583 | 9.45700 | 16165 ft | 318 kts | 148° |
| 2026-05-01 12:55 | 50.68728 | 9.49043 | 15424 ft | 314 kts | 148° |
| 2026-05-01 12:55 | 50.66817 | 9.50698 | 15052 ft | 312 kts | 148° |
| 2026-05-01 12:55 | 50.64917 | 9.52336 | 14677 ft | 311 kts | 148° |
| 2026-05-01 12:56 | 50.63029 | 9.53962 | 14308 ft | 308 kts | 148° |
| 2026-05-01 12:56 | 50.61150 | 9.55577 | 13929 ft | 307 kts | 148° |
| 2026-05-01 12:56 | 50.59189 | 9.56892 | 13543 ft | 309 kts | 161° |
| 2026-05-01 12:56 | 50.57054 | 9.57410 | 13134 ft | 312 kts | 174° |
| 2026-05-01 12:57 | 50.54885 | 9.57585 | 12722 ft | 312 kts | 174° |
| 2026-05-01 12:57 | 50.50564 | 9.57747 | 11851 ft | 314 kts | 186° |
| 2026-05-01 12:57 | 50.48532 | 9.56559 | 11407 ft | 322 kts | 210° |
| 2026-05-01 12:58 | 50.46966 | 9.54082 | 11186 ft | 319 kts | 236° |
| 2026-05-01 12:58 | 50.46137 | 9.50909 | 11161 ft | 313 kts | 252° |
| 2026-05-01 12:58 | 50.45514 | 9.47647 | 11098 ft | 312 kts | 252° |
| 2026-05-01 12:59 | 50.44290 | 9.41156 | 10862 ft | 309 kts | 252° |
| 2026-05-01 12:59 | 50.43681 | 9.37927 | 10755 ft | 308 kts | 251° |
| 2026-05-01 12:59 | 50.42453 | 9.31503 | 10534 ft | 307 kts | 251° |
| 2026-05-01 13:00 | 50.40744 | 9.25486 | 10350 ft | 301 kts | 230° |
| 2026-05-01 13:00 | 50.39289 | 9.23174 | 10235 ft | 296 kts | 215° |
| 2026-05-01 13:01 | 50.35840 | 9.19737 | 10045 ft | 293 kts | 208° |
| 2026-05-01 13:01 | 50.34106 | 9.18062 | 9957 ft | 292 kts | 208° |
| 2026-05-01 13:01 | 50.30656 | 9.14729 | 9752 ft | 290 kts | 208° |
| 2026-05-01 13:02 | 50.28948 | 9.13045 | 9657 ft | 291 kts | 212° |
| 2026-05-01 13:07 | 50.12941 | 8.51157 | 7403 ft | 284 kts | 247° |
| 2026-05-01 13:07 | 50.12250 | 8.48273 | 7341 ft | 283 kts | 247° |
| 2026-05-01 13:07 | 50.11567 | 8.45423 | 7349 ft | 285 kts | 246° |
| 2026-05-01 13:08 | 50.10860 | 8.42490 | 7370 ft | 285 kts | 246° |
| 2026-05-01 13:08 | 50.10168 | 8.39634 | 7380 ft | 287 kts | 246° |
| 2026-05-01 13:08 | 50.09466 | 8.36731 | 7361 ft | 286 kts | 246° |
| 2026-05-01 13:08 | 50.08764 | 8.33835 | 7357 ft | 286 kts | 246° |
| 2026-05-01 13:09 | 50.08062 | 8.30939 | 7355 ft | 286 kts | 246° |
| 2026-05-01 13:09 | 50.07360 | 8.28052 | 7354 ft | 285 kts | 246° |
| 2026-05-01 13:09 | 50.06659 | 8.25161 | 7348 ft | 286 kts | 246° |
| 2026-05-01 13:09 | 50.05955 | 8.22269 | 7333 ft | 285 kts | 246° |
| 2026-05-01 13:10 | 50.05256 | 8.19401 | 6980 ft | 282 kts | 246° |
| 2026-05-01 13:10 | 50.04561 | 8.16554 | 6541 ft | 282 kts | 246° |
| 2026-05-01 13:10 | 50.03868 | 8.13713 | 6155 ft | 280 kts | 246° |
| 2026-05-01 13:10 | 50.03183 | 8.10897 | 5952 ft | 276 kts | 246° |
| 2026-05-01 13:11 | 50.02492 | 8.08090 | 5908 ft | 279 kts | 245° |
| 2026-05-01 13:11 | 50.01459 | 8.05591 | 5817 ft | 273 kts | 221° |
| 2026-05-01 13:11 | 49.99900 | 8.04026 | 5696 ft | 266 kts | 197° |
| 2026-05-01 13:11 | 49.98112 | 8.03599 | 5589 ft | 259 kts | 173° |
| 2026-05-01 13:12 | 49.96442 | 8.04350 | 5497 ft | 242 kts | 149° |
| 2026-05-01 13:12 | 49.95210 | 8.05974 | 5416 ft | 227 kts | 127° |
| 2026-05-01 13:12 | 49.94513 | 8.08080 | 5316 ft | 215 kts | 107° |
| 2026-05-01 13:12 | 49.94358 | 8.10328 | 5217 ft | 207 kts | 87° |
| 2026-05-01 13:13 | 49.94692 | 8.12473 | 5124 ft | 203 kts | 72° |
| 2026-05-01 13:13 | 49.95190 | 8.14498 | 5031 ft | 197 kts | 72° |
| 2026-05-01 13:13 | 49.95666 | 8.16451 | 4932 ft | 190 kts | 73° |
| 2026-05-01 13:13 | 49.96127 | 8.18342 | 4733 ft | 186 kts | 73° |
| 2026-05-01 13:14 | 49.96581 | 8.20205 | 4495 ft | 183 kts | 73° |
| 2026-05-01 13:14 | 49.97032 | 8.22058 | 4251 ft | 184 kts | 72° |
| 2026-05-01 13:14 | 49.97490 | 8.23941 | 3973 ft | 187 kts | 73° |
| 2026-05-01 13:14 | 49.97948 | 8.25835 | 3717 ft | 188 kts | 72° |
| 2026-05-01 13:15 | 49.98414 | 8.27765 | 3436 ft | 193 kts | 72° |
| 2026-05-01 13:15 | 49.98887 | 8.29716 | 3174 ft | 194 kts | 72° |
| 2026-05-01 13:15 | 49.99357 | 8.31657 | 2922 ft | 194 kts | 73° |
| 2026-05-01 13:15 | 49.99828 | 8.33602 | 2615 ft | 188 kts | 72° |
| 2026-05-01 13:16 | 50.00276 | 8.35450 | 2365 ft | 178 kts | 72° |
| 2026-05-01 13:16 | 50.00703 | 8.37224 | 2107 ft | 171 kts | 72° |
| 2026-05-01 13:16 | 50.01104 | 8.38884 | 1887 ft | 161 kts | 72° |
| 2026-05-01 13:17 | 50.02198 | 8.43391 | 1216 ft | 139 kts | 71° |
| 2026-05-01 13:17 | 50.02525 | 8.44759 | 1046 ft | 132 kts | 71° |
| 2026-05-01 13:18 | 50.03156 | 8.47397 | 643 ft | 128 kts | 72° |
| 2026-05-01 13:18 | 50.03465 | 8.48687 | 477 ft | 127 kts | 72° |
| 2026-05-01 13:18 | 50.03772 | 8.49969 | 337 ft | 126 kts | 70° |
| 2026-05-01 13:18 | 50.04052 | 8.51151 | 329 ft | 98 kts | 69° |
| 2026-05-01 13:19 | 50.04234 | 8.51914 | 336 ft | 61 kts | 70° |
| 2026-05-01 13:19 | 50.04360 | 8.52439 | 349 ft | 36 kts | 69° |
| 2026-05-01 13:19 | 50.04372 | 8.53015 | 353 ft | 24 kts | 97° |
| 2026-05-01 13:20 | 50.04348 | 8.53249 | 363 ft | 19 kts | 92° |
| 2026-05-01 13:20 | 50.04378 | 8.53419 | 372 ft | 14 kts | 69° |
| 2026-05-01 13:20 | 50.04399 | 8.53554 | 375 ft | 13 kts | 85° |
| 2026-05-01 13:21 | 50.04414 | 8.53803 | 375 ft | 15 kts | 83° |
| 2026-05-01 13:21 | 50.04426 | 8.53975 | 375 ft | 17 kts | 84° |
| 2026-05-01 13:21 | 50.04439 | 8.54162 | 375 ft | 18 kts | 84° |
| 2026-05-01 13:21 | 50.04453 | 8.54440 | 371 ft | 21 kts | 91° |
| 2026-05-01 13:22 | 50.04434 | 8.54573 | 368 ft | 16 kts | 113° |
| 2026-05-01 13:22 | 50.04361 | 8.54726 | 362 ft | 20 kts | 140° |
| 2026-05-01 13:22 | 50.04217 | 8.54826 | 355 ft | 22 kts | 161° |
| 2026-05-01 13:22 | 50.04129 | 8.54876 | 354 ft | 9 kts | 158° |
| 2026-05-01 13:23 | 50.04067 | 8.54911 | 358 ft | 10 kts | 161° |
| 2026-05-01 13:23 | 50.04018 | 8.54966 | 360 ft | 8 kts | 115° |
| 2026-05-01 13:23 | 50.04027 | 8.55054 | 354 ft | 9 kts | 70° |
| 2026-05-01 13:23 | 50.04052 | 8.55154 | 353 ft | 10 kts | 69° |
| 2026-05-01 13:24 | 50.04080 | 8.55269 | 360 ft | 12 kts | 71° |
| 2026-05-01 13:24 | 50.04112 | 8.55411 | 358 ft | 15 kts | 69° |
| 2026-05-01 13:24 | 50.04151 | 8.55571 | 351 ft | 17 kts | 70° |
| 2026-05-01 13:25 | 50.04236 | 8.55925 | 360 ft | 18 kts | 69° |
| 2026-05-01 13:25 | 50.04280 | 8.56112 | 361 ft | 19 kts | 70° |
| 2026-05-01 13:25 | 50.04327 | 8.56309 | 362 ft | 20 kts | 69° |
| 2026-05-01 13:25 | 50.04374 | 8.56504 | 362 ft | 16 kts | 69° |
| 2026-05-01 13:26 | 50.04400 | 8.56612 | 357 ft | 10 kts | 69° |
| 2026-05-01 13:26 | 50.04424 | 8.56712 | 358 ft | 9 kts | 70° |
| 2026-05-01 13:26 | 50.04427 | 8.56726 | 358 ft | 0 kts | 70° |
| 2026-05-01 13:28 | 50.04443 | 8.56793 | 362 ft | 6 kts | 69° |
| 2026-05-01 13:28 | 50.04469 | 8.56853 | 363 ft | 7 kts | 39° |
| 2026-05-01 13:29 | 50.04590 | 8.56905 | 357 ft | 13 kts | 13° |
| 2026-05-01 13:29 | 50.04695 | 8.56876 | 356 ft | 4 kts | 283° |
| 2026-05-01 13:30 | 50.04704 | 8.56844 | 356 ft | 0 kts | 295° |